sensor_id;sensor_type;location;lat;lon;timestamp;pressure;altitude;pressure_sealevel;temperature;humidity
9774;BME280;4926;42.670;23.316;2023-03-04T00:01:28;94567.50;;;6.96;100.00
9774;BME280;4926;42.670;23.316;2023-03-04T00:03:55;94570.38;;;6.95;100.00
9774;BME280;4926;42.670;23.316;2023-03-04T00:06:21;94533.63;;;6.68;100.00
9774;BME280;4926;42.670;23.316;2023-03-04T00:08:48;94561.66;;;6.84;100.00
9774;BME280;4926;42.670;23.316;2023-03-04T00:11:15;94574.88;;;6.69;100.00
9774;BME280;4926;42.670;23.316;2023-03-04T00:13:41;94573.28;;;6.78;100.00
9774;BME280;4926;42.670;23.316;2023-03-04T00:16:08;94577.50;;;6.74;100.00
9774;BME280;4926;42.670;23.316;2023-03-04T00:18:36;94557.16;;;6.69;100.00
9774;BME280;4926;42.670;23.316;2023-03-04T00:21:06;94585.47;;;6.79;100.00
9774;BME280;4926;42.670;23.316;2023-03-04T00:23:32;94553.97;;;6.67;100.00
9774;BME280;4926;42.670;23.316;2023-03-04T00:25:59;94549.47;;;6.68;100.00
9774;BME280;4926;42.670;23.316;2023-03-04T00:28:26;94542.59;;;6.62;100.00
9774;BME280;4926;42.670;23.316;2023-03-04T00:30:53;94556.34;;;6.74;100.00
9774;BME280;4926;42.670;23.316;2023-03-04T00:33:25;94548.69;;;6.82;100.00
9774;BME280;4926;42.670;23.316;2023-03-04T00:35:53;94550.28;;;6.84;100.00
9774;BME280;4926;42.670;23.316;2023-03-04T00:38:19;94553.47;;;6.86;100.00
9774;BME280;4926;42.670;23.316;2023-03-04T00:40:46;94551.06;;;6.74;100.00
9774;BME280;4926;42.670;23.316;2023-03-04T00:43:18;94552.91;;;6.73;100.00
9774;BME280;4926;42.670;23.316;2023-03-04T00:45:45;94551.34;;;6.77;100.00
9774;BME280;4926;42.670;23.316;2023-03-04T00:48:12;94546.31;;;6.76;100.00
9774;BME280;4926;42.670;23.316;2023-03-04T00:50:39;94542.63;;;6.82;100.00
9774;BME280;4926;42.670;23.316;2023-03-04T00:53:07;94547.13;;;6.82;100.00
9774;BME280;4926;42.670;23.316;2023-03-04T00:55:33;94554.25;;;6.86;100.00
9774;BME280;4926;42.670;23.316;2023-03-04T00:58:00;94547.91;;;6.92;100.00
9774;BME280;4926;42.670;23.316;2023-03-04T01:00:27;94543.44;;;6.98;100.00
9774;BME280;4926;42.670;23.316;2023-03-04T01:02:54;94535.72;;;6.91;100.00
9774;BME280;4926;42.670;23.316;2023-03-04T01:05:21;94542.88;;;6.96;100.00
9774;BME280;4926;42.670;23.316;2023-03-04T01:07:48;94545.25;;;7.02;100.00
9774;BME280;4926;42.670;23.316;2023-03-04T01:10:16;94550.56;;;7.07;100.00
9774;BME280;4926;42.670;23.316;2023-03-04T01:12:43;94547.63;;;7.09;100.00
9774;BME280;4926;42.670;23.316;2023-03-04T01:15:12;94546.34;;;7.06;100.00
9774;BME280;4926;42.670;23.316;2023-03-04T01:17:39;94545.81;;;7.04;100.00
9774;BME280;4926;42.670;23.316;2023-03-04T01:20:09;94543.69;;;7.11;100.00
9774;BME280;4926;42.670;23.316;2023-03-04T01:22:36;94539.47;;;7.10;100.00
9774;BME280;4926;42.670;23.316;2023-03-04T01:25:09;94533.63;;;6.93;100.00
9774;BME280;4926;42.670;23.316;2023-03-04T01:27:39;94538.13;;;7.03;100.00
9774;BME280;4926;42.670;23.316;2023-03-04T01:30:11;94506.91;;;6.79;100.00
9774;BME280;4926;42.670;23.316;2023-03-04T01:32:38;94530.97;;;6.98;100.00
9774;BME280;4926;42.670;23.316;2023-03-04T01:35:05;94530.69;;;6.95;100.00
9774;BME280;4926;42.670;23.316;2023-03-04T01:37:35;94527.81;;;6.96;100.00
9774;BME280;4926;42.670;23.316;2023-03-04T01:40:02;94529.94;;;6.94;100.00
9774;BME280;4926;42.670;23.316;2023-03-04T01:42:33;94524.63;;;7.04;100.00
9774;BME280;4926;42.670;23.316;2023-03-04T01:45:02;94523.03;;;6.93;100.00
9774;BME280;4926;42.670;23.316;2023-03-04T01:47:30;94516.69;;;6.89;100.00
9774;BME280;4926;42.670;23.316;2023-03-04T01:50:00;94509.81;;;6.78;100.00
9774;BME280;4926;42.670;23.316;2023-03-04T01:52:28;94514.28;;;6.77;100.00
9774;BME280;4926;42.670;23.316;2023-03-04T01:54:56;94509.53;;;6.74;100.00
9774;BME280;4926;42.670;23.316;2023-03-04T01:57:24;94505.28;;;6.73;100.00
9774;BME280;4926;42.670;23.316;2023-03-04T02:00:16;94514.56;;;6.81;100.00
9774;BME280;4926;42.670;23.316;2023-03-04T02:02:46;94499.22;;;6.68;100.00
9774;BME280;4926;42.670;23.316;2023-03-04T02:05:16;94510.34;;;6.75;100.00
9774;BME280;4926;42.670;23.316;2023-03-04T02:07:43;94494.44;;;6.65;100.00
9774;BME280;4926;42.670;23.316;2023-03-04T02:10:10;94508.22;;;6.67;100.00
9774;BME280;4926;42.670;23.316;2023-03-04T02:12:41;94506.38;;;6.62;100.00
9774;BME280;4926;42.670;23.316;2023-03-04T02:15:08;94507.13;;;6.58;100.00
9774;BME280;4926;42.670;23.316;2023-03-04T02:17:36;94508.19;;;6.57;100.00
9774;BME280;4926;42.670;23.316;2023-03-04T02:20:13;94507.13;;;6.58;100.00
9774;BME280;4926;42.670;23.316;2023-03-04T02:22:46;94498.66;;;6.51;100.00
9774;BME280;4926;42.670;23.316;2023-03-04T02:25:30;94500.00;;;6.48;100.00
9774;BME280;4926;42.670;23.316;2023-03-04T02:28:00;94502.63;;;6.43;100.00
9774;BME280;4926;42.670;23.316;2023-03-04T02:30:27;94493.38;;;6.51;100.00
9774;BME280;4926;42.670;23.316;2023-03-04T02:32:54;94496.81;;;6.56;100.00
9774;BME280;4926;42.670;23.316;2023-03-04T02:35:23;94489.69;;;6.52;100.00
9774;BME280;4926;42.670;23.316;2023-03-04T02:37:50;94490.22;;;6.49;100.00
9774;BME280;4926;42.670;23.316;2023-03-04T02:40:22;94491.25;;;6.38;100.00
9774;BME280;4926;42.670;23.316;2023-03-04T02:42:50;94501.78;;;6.23;100.00
9774;BME280;4926;42.670;23.316;2023-03-04T02:45:37;94490.97;;;6.29;100.00
9774;BME280;4926;42.670;23.316;2023-03-04T02:48:05;94484.34;;;6.32;100.00
9774;BME280;4926;42.670;23.316;2023-03-04T02:50:35;94478.03;;;6.33;100.00
9774;BME280;4926;42.670;23.316;2023-03-04T02:53:03;94469.56;;;6.31;100.00
9774;BME280;4926;42.670;23.316;2023-03-04T02:55:31;94484.13;;;6.38;100.00
9774;BME280;4926;42.670;23.316;2023-03-04T02:57:58;94476.41;;;6.17;100.00
9774;BME280;4926;42.670;23.316;2023-03-04T03:00:25;94485.34;;;6.06;100.00
9774;BME280;4926;42.670;23.316;2023-03-04T03:02:53;94491.16;;;5.98;100.00
9774;BME280;4926;42.670;23.316;2023-03-04T03:05:22;94485.84;;;5.88;100.00
9774;BME280;4926;42.670;23.316;2023-03-04T03:07:50;94480.97;;;5.69;100.00
9774;BME280;4926;42.670;23.316;2023-03-04T03:10:17;94478.31;;;5.64;100.00
9774;BME280;4926;42.670;23.316;2023-03-04T03:12:43;94478.28;;;5.54;100.00
9774;BME280;4926;42.670;23.316;2023-03-04T03:15:10;94487.28;;;5.68;100.00
9774;BME280;4926;42.670;23.316;2023-03-04T03:17:37;94480.47;;;5.72;100.00
9774;BME280;4926;42.670;23.316;2023-03-04T03:20:07;94483.22;;;5.88;100.00
9774;BME280;4926;42.670;23.316;2023-03-04T03:22:34;94495.88;;;5.86;100.00
9774;BME280;4926;42.670;23.316;2023-03-04T03:25:00;94496.31;;;5.72;100.00
9774;BME280;4926;42.670;23.316;2023-03-04T03:27:27;94487.25;;;5.58;100.00
9774;BME280;4926;42.670;23.316;2023-03-04T03:30:03;94486.78;;;5.66;100.00
9774;BME280;4926;42.670;23.316;2023-03-04T03:32:30;94483.88;;;5.63;100.00
9774;BME280;4926;42.670;23.316;2023-03-04T03:34:57;94485.72;;;5.67;100.00
9774;BME280;4926;42.670;23.316;2023-03-04T03:37:25;94489.72;;;5.75;100.00
9774;BME280;4926;42.670;23.316;2023-03-04T03:39:52;94481.81;;;5.80;100.00
9774;BME280;4926;42.670;23.316;2023-03-04T03:42:19;94477.56;;;5.74;100.00
9774;BME280;4926;42.670;23.316;2023-03-04T03:44:48;94471.47;;;5.68;100.00
9774;BME280;4926;42.670;23.316;2023-03-04T03:47:15;94477.81;;;5.72;100.00
9774;BME280;4926;42.670;23.316;2023-03-04T03:49:42;94484.78;;;5.89;100.00
9774;BME280;4926;42.670;23.316;2023-03-04T03:52:11;94481.66;;;6.02;100.00
9774;BME280;4926;42.670;23.316;2023-03-04T03:54:39;94474.03;;;6.05;100.00
9774;BME280;4926;42.670;23.316;2023-03-04T03:57:07;94480.34;;;6.09;100.00
9774;BME280;4926;42.670;23.316;2023-03-04T03:59:34;94479.03;;;6.12;100.00
9774;BME280;4926;42.670;23.316;2023-03-04T04:02:01;94468.22;;;6.13;100.00
9774;BME280;4926;42.670;23.316;2023-03-04T04:04:27;94470.06;;;6.13;100.00
9774;BME280;4926;42.670;23.316;2023-03-04T04:06:54;94462.38;;;6.11;100.00
9774;BME280;4926;42.670;23.316;2023-03-04T04:09:21;94456.84;;;6.18;100.00
9774;BME280;4926;42.670;23.316;2023-03-04T04:11:49;94464.00;;;6.22;100.00
9774;BME280;4926;42.670;23.316;2023-03-04T04:14:16;94460.84;;;6.25;100.00
9774;BME280;4926;42.670;23.316;2023-03-04T04:16:42;94466.91;;;6.16;100.00
9774;BME280;4926;42.670;23.316;2023-03-04T04:19:15;94462.09;;;5.93;100.00
9774;BME280;4926;42.670;23.316;2023-03-04T04:21:42;94460.47;;;5.87;100.00
9774;BME280;4926;42.670;23.316;2023-03-04T04:24:09;94461.22;;;5.82;100.00
9774;BME280;4926;42.670;23.316;2023-03-04T04:26:35;94460.41;;;5.77;100.00
9774;BME280;4926;42.670;23.316;2023-03-04T04:29:04;94464.34;;;5.69;100.00
9774;BME280;4926;42.670;23.316;2023-03-04T04:31:30;94452.97;;;5.68;100.00
9774;BME280;4926;42.670;23.316;2023-03-04T04:33:57;94452.47;;;5.72;100.00
9774;BME280;4926;42.670;23.316;2023-03-04T04:36:24;94471.56;;;5.89;100.00
9774;BME280;4926;42.670;23.316;2023-03-04T04:38:50;94467.81;;;5.80;100.00
9774;BME280;4926;42.670;23.316;2023-03-04T04:41:20;94463.31;;;5.70;100.00
9774;BME280;4926;42.670;23.316;2023-03-04T04:43:47;94461.38;;;5.50;100.00
9774;BME280;4926;42.670;23.316;2023-03-04T04:46:16;94459.28;;;5.52;100.00
9774;BME280;4926;42.670;23.316;2023-03-04T04:48:43;94461.78;;;5.27;100.00
9774;BME280;4926;42.670;23.316;2023-03-04T04:51:10;94464.53;;;5.06;100.00
9774;BME280;4926;42.670;23.316;2023-03-04T04:53:40;94474.81;;;5.02;100.00
9774;BME280;4926;42.670;23.316;2023-03-04T04:56:14;94464.53;;;5.06;100.00
9774;BME280;4926;42.670;23.316;2023-03-04T04:58:42;94463.69;;;4.95;100.00
9774;BME280;4926;42.670;23.316;2023-03-04T05:01:09;94473.59;;;4.78;100.00
9774;BME280;4926;42.670;23.316;2023-03-04T05:03:38;94469.25;;;4.62;100.00
9774;BME280;4926;42.670;23.316;2023-03-04T05:06:07;94472.56;;;4.47;100.00
9774;BME280;4926;42.670;23.316;2023-03-04T05:08:34;94489.25;;;4.58;100.00
9774;BME280;4926;42.670;23.316;2023-03-04T05:11:01;94488.78;;;4.66;100.00
9774;BME280;4926;42.670;23.316;2023-03-04T05:13:30;94482.56;;;4.77;100.00
9774;BME280;4926;42.670;23.316;2023-03-04T05:15:57;94492.84;;;4.79;100.00
9774;BME280;4926;42.670;23.316;2023-03-04T05:18:25;94487.72;;;4.99;100.00
9774;BME280;4926;42.670;23.316;2023-03-04T05:20:55;94488.88;;;5.18;100.00
9774;BME280;4926;42.670;23.316;2023-03-04T05:23:23;94472.56;;;5.21;100.00
9774;BME280;4926;42.670;23.316;2023-03-04T05:25:50;94489.28;;;5.41;100.00
9774;BME280;4926;42.670;23.316;2023-03-04T05:28:20;94499.13;;;5.51;100.00
9774;BME280;4926;42.670;23.316;2023-03-04T05:30:52;94497.34;;;5.66;100.00
9774;BME280;4926;42.670;23.316;2023-03-04T05:33:19;94498.94;;;5.67;100.00
9774;BME280;4926;42.670;23.316;2023-03-04T05:35:49;94502.81;;;5.55;100.00
9774;BME280;4926;42.670;23.316;2023-03-04T05:38:23;94499.88;;;5.46;100.00
9774;BME280;4926;42.670;23.316;2023-03-04T05:40:55;94504.91;;;5.53;100.00
9774;BME280;4926;42.670;23.316;2023-03-04T05:43:23;94501.50;;;5.52;100.00
9774;BME280;4926;42.670;23.316;2023-03-04T05:45:59;94501.50;;;5.52;100.00
9774;BME280;4926;42.670;23.316;2023-03-04T05:48:26;94510.56;;;5.66;100.00
9774;BME280;4926;42.670;23.316;2023-03-04T05:50:54;94509.50;;;5.67;100.00
9774;BME280;4926;42.670;23.316;2023-03-04T05:53:22;94507.09;;;5.66;100.00
9774;BME280;4926;42.670;23.316;2023-03-04T05:55:49;94506.84;;;5.67;100.00
9774;BME280;4926;42.670;23.316;2023-03-04T05:58:16;94509.50;;;5.67;100.00
9774;BME280;4926;42.670;23.316;2023-03-04T06:00:46;94507.38;;;5.69;100.00
9774;BME280;4926;42.670;23.316;2023-03-04T06:03:14;94515.56;;;5.68;100.00
9774;BME280;4926;42.670;23.316;2023-03-04T06:05:41;94517.25;;;5.84;100.00
9774;BME280;4926;42.670;23.316;2023-03-04T06:08:09;94522.31;;;5.96;100.00
9774;BME280;4926;42.670;23.316;2023-03-04T06:10:37;94528.69;;;6.00;100.00
9774;BME280;4926;42.670;23.316;2023-03-04T06:13:04;94523.44;;;6.15;100.00
9774;BME280;4926;42.670;23.316;2023-03-04T06:15:31;94527.72;;;6.31;100.00
9774;BME280;4926;42.670;23.316;2023-03-04T06:18:00;94523.53;;;6.45;100.00
9774;BME280;4926;42.670;23.316;2023-03-04T06:20:26;94525.63;;;6.53;100.00
9774;BME280;4926;42.670;23.316;2023-03-04T06:22:55;94529.91;;;6.59;100.00
9774;BME280;4926;42.670;23.316;2023-03-04T06:25:22;94524.34;;;6.55;100.00
9774;BME280;4926;42.670;23.316;2023-03-04T06:27:50;94531.47;;;6.55;100.00
9774;BME280;4926;42.670;23.316;2023-03-04T06:30:22;94527.75;;;6.46;100.00
9774;BME280;4926;42.670;23.316;2023-03-04T06:32:49;94535.66;;;6.31;100.00
9774;BME280;4926;42.670;23.316;2023-03-04T06:35:18;94517.69;;;6.43;100.00
9774;BME280;4926;42.670;23.316;2023-03-04T06:37:45;94524.88;;;6.67;100.00
9774;BME280;4926;42.670;23.316;2023-03-04T06:40:14;94521.47;;;6.82;100.00
9774;BME280;4926;42.670;23.316;2023-03-04T06:42:45;94534.16;;;6.95;100.00
9774;BME280;4926;42.670;23.316;2023-03-04T06:45:16;94543.16;;;7.09;100.00
9774;BME280;4926;42.670;23.316;2023-03-04T06:47:43;94541.56;;;7.13;100.00
9774;BME280;4926;42.670;23.316;2023-03-04T06:50:11;94549.53;;;7.03;100.00
9774;BME280;4926;42.670;23.316;2023-03-04T06:52:41;94535.72;;;6.91;100.00
9774;BME280;4926;42.670;23.316;2023-03-04T06:55:08;94542.09;;;6.90;100.00
9774;BME280;4926;42.670;23.316;2023-03-04T06:57:35;94531.78;;;6.99;100.00
9774;BME280;4926;42.670;23.316;2023-03-04T07:00:06;94545.00;;;7.24;100.00
9774;BME280;4926;42.670;23.316;2023-03-04T07:02:34;94543.41;;;7.33;100.00
9774;BME280;4926;42.670;23.316;2023-03-04T07:05:00;94558.22;;;7.39;100.00
9774;BME280;4926;42.670;23.316;2023-03-04T07:07:30;94553.72;;;7.34;100.00
9774;BME280;4926;42.670;23.316;2023-03-04T07:09:59;94559.81;;;7.30;100.00
9774;BME280;4926;42.670;23.316;2023-03-04T07:12:28;94557.97;;;7.25;100.00
9774;BME280;4926;42.670;23.316;2023-03-04T07:14:54;94554.25;;;7.31;100.00
9774;BME280;4926;42.670;23.316;2023-03-04T07:17:23;94555.31;;;7.35;100.00
9774;BME280;4926;42.670;23.316;2023-03-04T07:19:51;94551.34;;;7.28;100.00
9774;BME280;4926;42.670;23.316;2023-03-04T07:22:18;94557.97;;;7.35;100.00
9774;BME280;4926;42.670;23.316;2023-03-04T07:24:48;94563.25;;;7.45;100.00
9774;BME280;4926;42.670;23.316;2023-03-04T07:27:14;94563.75;;;7.52;100.00
9774;BME280;4926;42.670;23.316;2023-03-04T07:29:41;94559.53;;;7.51;100.00
9774;BME280;4926;42.670;23.316;2023-03-04T07:32:12;94543.41;;;7.38;100.00
9774;BME280;4926;42.670;23.316;2023-03-04T07:34:38;94565.91;;;7.50;100.00
9774;BME280;4926;42.670;23.316;2023-03-04T07:37:06;94565.09;;;7.50;100.00
9774;BME280;4926;42.670;23.316;2023-03-04T07:39:36;94553.44;;;7.46;100.00
9774;BME280;4926;42.670;23.316;2023-03-04T07:42:03;94558.72;;;7.56;100.00
9774;BME280;4926;42.670;23.316;2023-03-04T07:44:30;94566.69;;;7.61;100.00
9774;BME280;4926;42.670;23.316;2023-03-04T07:46:56;94555.28;;;7.60;100.00
9774;BME280;4926;42.670;23.316;2023-03-04T07:49:23;94556.84;;;7.81;100.00
9774;BME280;4926;42.670;23.316;2023-03-04T07:51:50;94553.63;;;7.89;100.00
9774;BME280;4926;42.670;23.316;2023-03-04T07:54:20;94556.47;;;8.03;100.00
9774;BME280;4926;42.670;23.316;2023-03-04T07:56:47;94554.06;;;8.17;100.00
9774;BME280;4926;42.670;23.316;2023-03-04T07:59:14;94549.88;;;8.01;100.00
9774;BME280;4926;42.670;23.316;2023-03-04T08:01:40;94552.09;;;7.63;100.00
9774;BME280;4926;42.670;23.316;2023-03-04T08:04:10;94546.25;;;7.71;100.00
9774;BME280;4926;42.670;23.316;2023-03-04T08:06:39;94551.03;;;7.74;100.00
9774;BME280;4926;42.670;23.316;2023-03-04T08:09:10;94552.03;;;7.88;100.00
9774;BME280;4926;42.670;23.316;2023-03-04T08:11:39;94549.59;;;8.02;100.00
9774;BME280;4926;42.670;23.316;2023-03-04T08:14:06;94554.66;;;7.93;100.00
9774;BME280;4926;42.670;23.316;2023-03-04T08:16:33;94534.84;;;7.76;100.00
9774;BME280;4926;42.670;23.316;2023-03-04T08:19:01;94556.78;;;7.97;100.00
9774;BME280;4926;42.670;23.316;2023-03-04T08:21:28;94551.97;;;8.09;100.00
9774;BME280;4926;42.670;23.316;2023-03-04T08:24:01;94548.50;;;8.18;100.00
9774;BME280;4926;42.670;23.316;2023-03-04T08:26:35;94533.09;;;8.20;100.00
9774;BME280;4926;42.670;23.316;2023-03-04T08:29:10;94548.13;;;8.40;100.00
9774;BME280;4926;42.670;23.316;2023-03-04T08:31:37;94547.25;;;7.96;100.00
9774;BME280;4926;42.670;23.316;2023-03-04T08:34:05;94548.03;;;8.01;100.00
9774;BME280;4926;42.670;23.316;2023-03-04T08:36:37;94541.13;;;8.00;100.00
9774;BME280;4926;42.670;23.316;2023-03-04T08:39:07;94540.09;;;7.91;100.00
9774;BME280;4926;42.670;23.316;2023-03-04T08:41:37;94544.59;;;7.85;100.00
9774;BME280;4926;42.670;23.316;2023-03-04T08:44:07;94540.09;;;7.91;100.00
9774;BME280;4926;42.670;23.316;2023-03-04T08:46:38;94536.66;;;7.90;100.00
9774;BME280;4926;42.670;23.316;2023-03-04T08:49:06;94540.91;;;7.91;100.00
9774;BME280;4926;42.670;23.316;2023-03-04T08:51:33;94538.47;;;8.00;100.00
9774;BME280;4926;42.670;23.316;2023-03-04T08:54:02;94537.38;;;8.11;100.00
9774;BME280;4926;42.670;23.316;2023-03-04T08:56:32;94532.81;;;8.22;100.00
9774;BME280;4926;42.670;23.316;2023-03-04T08:58:59;94523.81;;;8.28;100.00
9774;BME280;4926;42.670;23.316;2023-03-04T09:01:27;94535.34;;;8.57;100.00
9774;BME280;4926;42.670;23.316;2023-03-04T09:03:56;94533.34;;;8.29;100.00
9774;BME280;4926;42.670;23.316;2023-03-04T09:06:25;94533.09;;;8.30;100.00
9774;BME280;4926;42.670;23.316;2023-03-04T09:08:52;94525.16;;;8.25;100.00
9774;BME280;4926;42.670;23.316;2023-03-04T09:11:22;94523.25;;;8.36;100.00
9774;BME280;4926;42.670;23.316;2023-03-04T09:13:48;94525.78;;;8.56;99.17
9774;BME280;4926;42.670;23.316;2023-03-04T09:16:18;94517.16;;;8.74;96.37
9774;BME280;4926;42.670;23.316;2023-03-04T09:18:50;94523.97;;;8.90;94.63
9774;BME280;4926;42.670;23.316;2023-03-04T09:21:17;94512.69;;;9.03;94.27
9774;BME280;4926;42.670;23.316;2023-03-04T09:23:43;94514.72;;;9.16;92.77
9774;BME280;4926;42.670;23.316;2023-03-04T09:26:20;94510.06;;;9.32;92.12
9774;BME280;4926;42.670;23.316;2023-03-04T09:28:49;94509.56;;;9.30;89.88
9774;BME280;4926;42.670;23.316;2023-03-04T09:31:16;94515.81;;;9.10;89.73
9774;BME280;4926;42.670;23.316;2023-03-04T09:33:43;94512.75;;;8.98;91.20
9774;BME280;4926;42.670;23.316;2023-03-04T09:36:13;94505.63;;;9.22;92.46
9774;BME280;4926;42.670;23.316;2023-03-04T09:38:41;94499.63;;;9.40;89.54
9774;BME280;4926;42.670;23.316;2023-03-04T09:41:14;94501.81;;;9.62;89.00
9774;BME280;4926;42.670;23.316;2023-03-04T09:43:43;94496.03;;;9.78;88.31
9774;BME280;4926;42.670;23.316;2023-03-04T09:46:13;94498.66;;;10.07;87.05
9774;BME280;4926;42.670;23.316;2023-03-04T09:48:44;94490.97;;;10.05;84.99
9774;BME280;4926;42.670;23.316;2023-03-04T09:51:20;94494.59;;;10.15;85.31
9774;BME280;4926;42.670;23.316;2023-03-04T09:53:57;94482.59;;;9.70;84.52
9774;BME280;4926;42.670;23.316;2023-03-04T09:56:26;94500.25;;;9.32;86.45
9774;BME280;4926;42.670;23.316;2023-03-04T09:59:08;94493.25;;;9.13;88.06
9774;BME280;4926;42.670;23.316;2023-03-04T10:01:47;94491.03;;;9.48;89.58
9774;BME280;4926;42.670;23.316;2023-03-04T10:04:17;94479.53;;;9.81;88.36
9774;BME280;4926;42.670;23.316;2023-03-04T10:06:49;94464.94;;;9.79;85.52
9774;BME280;4926;42.670;23.316;2023-03-04T10:09:21;94472.41;;;10.00;84.51
9774;BME280;4926;42.670;23.316;2023-03-04T10:11:58;94465.34;;;10.33;83.86
9774;BME280;4926;42.670;23.316;2023-03-04T10:14:41;94459.44;;;10.73;81.83
9774;BME280;4926;42.670;23.316;2023-03-04T10:17:14;94424.38;;;10.85;78.64
9774;BME280;4926;42.670;23.316;2023-03-04T10:19:54;94448.88;;;11.46;76.71
9774;BME280;4926;42.670;23.316;2023-03-04T10:22:28;94443.47;;;11.51;74.25
9774;BME280;4926;42.670;23.316;2023-03-04T10:24:59;94436.16;;;11.30;73.79
9774;BME280;4926;42.670;23.316;2023-03-04T10:27:27;94444.13;;;11.16;75.77
9774;BME280;4926;42.670;23.316;2023-03-04T10:30:01;94447.94;;;11.10;75.86
9774;BME280;4926;42.670;23.316;2023-03-04T10:32:28;94446.69;;;11.21;75.01
9774;BME280;4926;42.670;23.316;2023-03-04T10:34:55;94432.00;;;11.37;75.20
9774;BME280;4926;42.670;23.316;2023-03-04T10:37:23;94432.88;;;11.33;73.98
9774;BME280;4926;42.670;23.316;2023-03-04T10:39:50;94435.28;;;11.02;75.07
9774;BME280;4926;42.670;23.316;2023-03-04T10:42:28;94431.84;;;10.83;76.08
9774;BME280;4926;42.670;23.316;2023-03-04T10:45:01;94420.44;;;10.64;76.81
9774;BME280;4926;42.670;23.316;2023-03-04T10:47:31;94431.16;;;10.59;77.94
9774;BME280;4926;42.670;23.316;2023-03-04T10:50:02;94423.59;;;10.34;77.66
9774;BME280;4926;42.670;23.316;2023-03-04T10:52:33;94435.38;;;10.09;80.06
9774;BME280;4926;42.670;23.316;2023-03-04T10:55:03;94435.19;;;10.00;82.02
9774;BME280;4926;42.670;23.316;2023-03-04T10:57:37;94433.50;;;9.62;83.19
9774;BME280;4926;42.670;23.316;2023-03-04T11:00:30;94425.28;;;9.82;83.92
9774;BME280;4926;42.670;23.316;2023-03-04T11:03:31;94414.16;;;9.80;82.79
9774;BME280;4926;42.670;23.316;2023-03-04T11:06:19;94423.31;;;9.69;84.94
9774;BME280;4926;42.670;23.316;2023-03-04T11:08:55;94407.69;;;9.44;86.11
9774;BME280;4926;42.670;23.316;2023-03-04T11:11:30;94416.56;;;9.58;86.78
9774;BME280;4926;42.670;23.316;2023-03-04T11:14:01;94402.25;;;9.54;86.51
9774;BME280;4926;42.670;23.316;2023-03-04T11:16:31;94405.78;;;9.68;86.53
9774;BME280;4926;42.670;23.316;2023-03-04T11:19:02;94399.91;;;9.71;85.67
9774;BME280;4926;42.670;23.316;2023-03-04T11:21:35;94376.50;;;9.73;85.95
9774;BME280;4926;42.670;23.316;2023-03-04T11:24:10;94389.19;;;9.76;85.16
9774;BME280;4926;42.670;23.316;2023-03-04T11:26:40;94381.56;;;9.93;84.61
9774;BME280;4926;42.670;23.316;2023-03-04T11:29:14;94372.50;;;9.94;84.09
9774;BME280;4926;42.670;23.316;2023-03-04T11:31:46;94360.41;;;9.83;84.43
9774;BME280;4926;42.670;23.316;2023-03-04T11:34:20;94377.31;;;9.92;84.34
9774;BME280;4926;42.670;23.316;2023-03-04T11:36:53;94364.31;;;9.91;84.47
9774;BME280;4926;42.670;23.316;2023-03-04T11:39:30;94355.88;;;10.02;84.15
9774;BME280;4926;42.670;23.316;2023-03-04T11:42:02;94357.03;;;9.96;84.60
9774;BME280;4926;42.670;23.316;2023-03-04T11:44:40;94356.91;;;10.06;84.02
9774;BME280;4926;42.670;23.316;2023-03-04T11:47:17;94367.53;;;10.06;84.02
9774;BME280;4926;42.670;23.316;2023-03-04T11:50:02;94357.63;;;9.93;84.29
9774;BME280;4926;42.670;23.316;2023-03-04T11:52:56;94357.13;;;9.91;85.16
9774;BME280;4926;42.670;23.316;2023-03-04T11:55:36;94348.63;;;9.71;84.99
9774;BME280;4926;42.670;23.316;2023-03-04T11:58:17;94360.41;;;9.41;88.11
9774;BME280;4926;42.670;23.316;2023-03-04T12:00:53;94353.25;;;9.42;88.56
9774;BME280;4926;42.670;23.316;2023-03-04T12:03:45;94351.44;;;9.37;89.40
9774;BME280;4926;42.670;23.316;2023-03-04T12:06:26;94338.09;;;9.42;87.97
9774;BME280;4926;42.670;23.316;2023-03-04T12:09:17;94347.47;;;9.35;88.75
9774;BME280;4926;42.670;23.316;2023-03-04T12:11:55;94331.97;;;9.42;89.36
9774;BME280;4926;42.670;23.316;2023-03-04T12:14:38;94330.84;;;9.48;88.77
9774;BME280;4926;42.670;23.316;2023-03-04T12:17:25;94331.53;;;9.58;88.66
9774;BME280;4926;42.670;23.316;2023-03-04T12:22:51;94318.53;;;9.33;89.43
9774;BME280;4926;42.670;23.316;2023-03-04T12:25:33;94326.81;;;9.50;89.96
9774;BME280;4926;42.670;23.316;2023-03-04T12:28:17;94319.63;;;9.74;90.04
9774;BME280;4926;42.670;23.316;2023-03-04T12:30:59;94312.00;;;9.86;88.60
9774;BME280;4926;42.670;23.316;2023-03-04T12:33:37;94305.88;;;9.86;86.83
9774;BME280;4926;42.670;23.316;2023-03-04T12:36:15;94316.16;;;9.92;85.75
9774;BME280;4926;42.670;23.316;2023-03-04T12:38:58;94312.97;;;9.90;87.07
9774;BME280;4926;42.670;23.316;2023-03-04T12:41:36;94298.03;;;9.94;86.45
9774;BME280;4926;42.670;23.316;2023-03-04T12:44:15;94308.72;;;10.08;86.87
9774;BME280;4926;42.670;23.316;2023-03-04T12:47:02;94295.31;;;9.99;88.64
9774;BME280;4926;42.670;23.316;2023-03-04T12:49:52;94297.19;;;10.18;86.73
9774;BME280;4926;42.670;23.316;2023-03-04T12:52:43;94292.69;;;10.18;85.45
9774;BME280;4926;42.670;23.316;2023-03-04T12:55:15;94277.00;;;9.98;84.93
9774;BME280;4926;42.670;23.316;2023-03-04T12:57:45;94288.00;;;9.91;85.17
9774;BME280;4926;42.670;23.316;2023-03-04T13:00:31;94281.25;;;9.80;85.92
9774;BME280;4926;42.670;23.316;2023-03-04T13:03:07;94285.75;;;9.80;86.11
9774;BME280;4926;42.670;23.316;2023-03-04T13:05:50;94272.31;;;9.71;85.33
9774;BME280;4926;42.670;23.316;2023-03-04T13:08:30;94273.66;;;10.06;85.44
9774;BME280;4926;42.670;23.316;2023-03-04T13:11:01;94271.53;;;10.27;84.88
9774;BME280;4926;42.670;23.316;2023-03-04T13:13:38;94260.25;;;10.16;82.97
9774;BME280;4926;42.670;23.316;2023-03-04T13:16:27;94267.88;;;10.04;84.19
9774;BME280;4926;42.670;23.316;2023-03-04T13:18:56;94252.06;;;9.75;84.43
9774;BME280;4926;42.670;23.316;2023-03-04T13:21:30;94261.13;;;9.93;84.73
9774;BME280;4926;42.670;23.316;2023-03-04T13:24:01;94262.91;;;9.97;84.70
9774;BME280;4926;42.670;23.316;2023-03-04T13:26:47;94250.78;;;9.91;85.60
9774;BME280;4926;42.670;23.316;2023-03-04T13:29:32;94256.78;;;10.16;83.57
9774;BME280;4926;42.670;23.316;2023-03-04T13:32:03;94253.44;;;10.10;83.36
9774;BME280;4926;42.670;23.316;2023-03-04T13:34:42;94247.03;;;9.92;84.00